createdAt,value
2022-11-23T00:01:51.364Z,34.10
2022-11-23T00:04:54.487Z,34.57
2022-11-23T00:07:57.652Z,32.23
2022-11-23T00:11:00.893Z,34.53
2022-11-23T00:14:05.703Z,34.17
2022-11-23T00:17:08.599Z,35.53
2022-11-23T00:20:11.977Z,33.30
2022-11-23T00:23:14.923Z,33.13
2022-11-23T00:26:19.474Z,34.87
2022-11-23T00:29:23.758Z,32.70
2022-11-23T00:32:27.443Z,32.20
2022-11-23T00:35:30.385Z,33.00
2022-11-23T00:38:33.570Z,32.87
2022-11-23T00:41:36.764Z,32.50
2022-11-23T00:44:41.044Z,32.83
2022-11-23T00:47:43.925Z,31.93
2022-11-23T00:50:46.827Z,31.40
2022-11-23T00:53:51.048Z,32.17
2022-11-23T00:56:53.900Z,34.20
2022-11-23T00:59:58.190Z,33.83
2022-11-23T01:03:01.111Z,32.67
2022-11-23T01:06:08.877Z,34.37
2022-11-23T01:09:15.972Z,33.10
2022-11-23T01:12:18.878Z,33.57
2022-11-23T01:15:23.359Z,31.43
2022-11-23T01:18:26.847Z,31.63
2022-11-23T01:21:31.359Z,31.23
2022-11-23T01:24:34.283Z,31.43
2022-11-23T01:27:37.184Z,31.53
2022-11-23T01:30:41.418Z,31.73
2022-11-23T01:33:44.594Z,31.20
2022-11-23T01:36:47.705Z,31.00
2022-11-23T01:39:50.616Z,33.20
2022-11-23T01:42:56.633Z,30.73
2022-11-23T01:46:02.050Z,33.50
2022-11-23T01:49:07.664Z,31.67
2022-11-23T01:52:13.991Z,32.83
2022-11-23T01:55:17.948Z,32.20
2022-11-23T01:58:24.511Z,31.50
2022-11-23T02:01:28.991Z,31.57
2022-11-23T02:04:35.145Z,32.93
2022-11-23T02:07:39.102Z,31.97
2022-11-23T02:10:42.253Z,32.50
2022-11-23T02:13:47.631Z,29.30
2022-11-23T02:16:52.598Z,31.17
2022-11-23T02:20:02.616Z,32.33
2022-11-23T02:23:17.936Z,30.27
2022-11-23T02:26:24.185Z,31.40
2022-11-23T02:29:29.427Z,31.27
2022-11-23T02:32:34.383Z,29.87
2022-11-23T02:35:37.501Z,32.50
2022-11-23T02:38:40.414Z,31.27
2022-11-23T02:41:48.074Z,31.33
2022-11-23T02:45:01.378Z,30.03
2022-11-23T02:48:04.809Z,29.23
2022-11-23T02:51:07.925Z,31.40
2022-11-23T02:54:10.888Z,31.90
2022-11-23T02:57:15.647Z,31.33
2022-11-23T03:00:18.735Z,30.57
2022-11-23T03:03:21.629Z,30.23
2022-11-23T03:06:24.597Z,29.60
2022-11-23T03:09:28.256Z,30.57
2022-11-23T03:12:32.524Z,29.30
2022-11-23T03:15:35.395Z,29.83
2022-11-23T03:18:38.307Z,30.20
2022-11-23T03:21:41.231Z,31.07
2022-11-23T03:24:44.178Z,31.10
2022-11-23T03:27:48.733Z,31.50
2022-11-23T03:30:51.816Z,31.83
2022-11-23T03:33:54.805Z,32.53
2022-11-23T03:36:57.841Z,31.63
2022-11-23T03:40:00.791Z,29.33
2022-11-23T03:43:05.742Z,30.57
2022-11-23T03:46:08.595Z,30.77
2022-11-23T03:49:11.897Z,29.63
2022-11-23T03:52:14.770Z,31.80
2022-11-23T03:55:18.034Z,30.87
2022-11-23T03:58:22.364Z,31.10
2022-11-23T04:01:25.941Z,30.70
2022-11-23T04:04:28.912Z,33.07
2022-11-23T04:07:31.876Z,30.63
2022-11-23T04:10:35.192Z,31.63
2022-11-23T04:13:39.810Z,30.73
2022-11-23T04:16:42.718Z,29.77
2022-11-23T04:19:45.780Z,30.77
2022-11-23T04:22:48.671Z,29.87
2022-11-23T04:25:51.713Z,28.90
2022-11-23T04:28:56.102Z,29.30
2022-11-23T04:31:59.058Z,31.10
2022-11-23T04:35:01.946Z,29.57
2022-11-23T04:38:05.143Z,29.97
2022-11-23T04:41:08.047Z,29.57
2022-11-23T04:44:12.349Z,29.33
2022-11-23T04:47:15.315Z,29.57
2022-11-23T04:50:18.352Z,29.73
2022-11-23T04:53:21.314Z,30.53
2022-11-23T04:56:24.189Z,30.13
2022-11-23T04:59:28.691Z,30.57
2022-11-23T05:02:31.712Z,30.07
2022-11-23T05:05:34.675Z,30.13
2022-11-23T05:08:38.526Z,29.27
2022-11-23T05:11:41.780Z,28.67
2022-11-23T05:14:46.062Z,29.60
2022-11-23T05:17:48.955Z,29.57
2022-11-23T05:20:51.853Z,28.77
2022-11-23T05:23:54.894Z,29.93
2022-11-23T05:26:57.901Z,28.33
2022-11-23T05:30:02.479Z,29.17
2022-11-23T05:33:05.519Z,30.57
2022-11-23T05:36:09.223Z,29.67
2022-11-23T05:39:12.377Z,27.97
2022-11-23T05:42:15.372Z,30.13
2022-11-23T05:45:19.688Z,29.20
2022-11-23T05:48:22.574Z,27.73
2022-11-23T05:51:25.500Z,29.07
2022-11-23T05:54:28.427Z,28.00
2022-11-23T05:57:31.338Z,29.57
2022-11-23T06:00:35.642Z,26.97
2022-11-23T06:03:38.624Z,26.87
2022-11-23T06:06:41.759Z,28.50
2022-11-23T06:09:44.691Z,28.67
2022-11-23T06:12:47.664Z,28.57
2022-11-23T06:15:51.978Z,28.27
2022-11-23T06:18:54.895Z,29.13
2022-11-23T06:21:58.236Z,26.30
2022-11-23T06:25:01.374Z,27.70
2022-11-23T06:28:05.390Z,28.43
2022-11-23T06:31:11.483Z,28.23
2022-11-23T06:34:14.504Z,26.77
2022-11-23T06:37:17.413Z,27.50
2022-11-23T06:40:20.381Z,27.87
2022-11-23T06:43:23.329Z,26.37
2022-11-23T06:46:27.792Z,26.30
2022-11-23T06:49:31.053Z,26.27
2022-11-23T06:52:34.174Z,25.63
2022-11-23T06:55:37.122Z,27.63
2022-11-23T06:58:40.045Z,26.90
2022-11-23T07:01:44.411Z,27.27
2022-11-23T07:04:47.322Z,25.43
2022-11-23T07:07:50.531Z,26.77
2022-11-23T07:10:53.480Z,26.87
2022-11-23T07:13:56.594Z,27.80
2022-11-23T07:17:00.866Z,27.30
2022-11-23T07:20:03.833Z,27.93
2022-11-23T07:23:08.352Z,28.50
2022-11-23T07:26:11.227Z,27.50
2022-11-23T07:29:14.313Z,27.13
2022-11-23T07:32:18.559Z,28.10
2022-11-23T07:35:21.971Z,29.97
2022-11-23T07:38:24.908Z,29.33
2022-11-23T07:41:28.347Z,29.10
2022-11-23T07:44:31.286Z,26.50
2022-11-23T07:47:35.730Z,29.90
2022-11-23T07:50:40.041Z,27.80
2022-11-23T07:53:43.116Z,28.27
2022-11-23T07:56:46.071Z,29.83
2022-11-23T07:59:49.126Z,28.23
2022-11-23T08:03:25.576Z,27.20
2022-11-23T08:06:17.256Z,27.93
2022-11-23T08:09:20.302Z,28.10
2022-11-23T08:12:23.243Z,26.63
2022-11-23T08:15:28.095Z,27.07
2022-11-23T08:18:32.367Z,27.30
2022-11-23T08:21:35.255Z,25.13
2022-11-23T08:24:38.110Z,27.33
2022-11-23T08:27:41.174Z,25.77
2022-11-23T08:30:44.253Z,25.73
2022-11-23T08:33:48.572Z,27.50
2022-11-23T08:36:51.443Z,26.13
2022-11-23T08:39:54.360Z,27.67
2022-11-23T08:42:57.339Z,25.47
2022-11-23T08:46:05.642Z,25.80
2022-11-23T08:49:12.323Z,24.87
2022-11-23T08:52:15.943Z,25.00
2022-11-23T08:55:18.956Z,26.97
2022-11-23T08:58:21.882Z,26.87
2022-11-23T09:01:24.842Z,25.67
2022-11-23T09:04:30.879Z,25.30
2022-11-23T09:07:34.037Z,26.83
2022-11-23T09:10:37.769Z,25.17
2022-11-23T09:13:41.053Z,26.17
2022-11-23T09:16:43.990Z,24.33
2022-11-23T09:19:50.196Z,24.63
2022-11-23T09:22:53.865Z,25.77
2022-11-23T09:25:59.430Z,25.10
2022-11-23T09:29:02.319Z,24.67
2022-11-23T09:32:05.512Z,25.47
2022-11-23T09:35:10.775Z,25.50
2022-11-23T09:38:13.752Z,24.83
2022-11-23T09:41:32.150Z,24.43
2022-11-23T09:44:52.220Z,24.20
2022-11-23T09:48:11.780Z,24.13
2022-11-23T09:51:18.738Z,22.10
2022-11-23T09:54:29.225Z,22.40
2022-11-23T09:57:35.552Z,23.40
2022-11-23T10:00:42.277Z,22.57
2022-11-23T10:03:49.098Z,21.33
2022-11-23T10:06:57.539Z,21.63
2022-11-23T10:10:10.083Z,21.10
2022-11-23T10:13:28.045Z,23.17
2022-11-23T10:16:41.470Z,22.03
2022-11-23T10:20:02.799Z,20.57
2022-11-23T10:23:18.150Z,20.73
2022-11-23T10:26:22.707Z,20.47
2022-11-23T10:29:29.587Z,19.97
2022-11-23T10:32:37.887Z,21.83
2022-11-23T10:35:40.814Z,19.93
2022-11-23T10:38:45.566Z,20.57
2022-11-23T10:41:48.929Z,19.30
2022-11-23T10:44:54.111Z,18.73
2022-11-23T10:47:59.563Z,19.50
2022-11-23T10:51:17.854Z,20.47
2022-11-23T10:54:25.777Z,22.20
2022-11-23T10:57:33.533Z,20.07
2022-11-23T11:00:36.571Z,19.80
2022-11-23T11:03:39.482Z,20.63
2022-11-23T11:06:42.387Z,21.03
2022-11-23T11:09:50.695Z,20.93
2022-11-23T11:12:53.607Z,21.53
2022-11-23T11:15:58.927Z,18.73
2022-11-23T11:19:21.445Z,20.00
2022-11-23T11:22:33.459Z,18.47
2022-11-23T11:25:39.878Z,20.27
2022-11-23T11:28:44.772Z,18.03
2022-11-23T11:31:55.764Z,19.00
2022-11-23T11:35:04.890Z,19.97
2022-11-23T11:38:15.877Z,19.33
2022-11-23T11:41:25.351Z,18.50
2022-11-23T11:44:28.897Z,18.83
2022-11-23T11:47:37.688Z,18.50
2022-11-23T11:50:49.162Z,18.07
2022-11-23T11:53:57.648Z,18.40
2022-11-23T11:57:07.002Z,18.97
2022-11-23T12:00:14.879Z,18.70
2022-11-23T12:03:26.684Z,18.97
2022-11-23T12:06:35.785Z,19.23
2022-11-23T12:09:44.744Z,17.73
2022-11-23T12:12:49.287Z,17.03
2022-11-23T12:16:01.323Z,19.33
2022-11-23T12:19:15.082Z,18.97
2022-11-23T12:22:36.241Z,17.40
2022-11-23T12:25:41.896Z,17.90
2022-11-23T12:29:06.238Z,18.80
2022-11-23T12:32:20.358Z,18.47
2022-11-23T12:35:42.905Z,17.53
2022-11-23T12:38:55.616Z,17.20
2022-11-23T12:42:05.168Z,18.00
2022-11-23T12:45:25.090Z,16.63
2022-11-23T12:48:51.343Z,18.47
2022-11-23T12:52:01.593Z,18.37
2022-11-23T12:55:20.066Z,18.73
2022-11-23T12:58:28.776Z,17.53
2022-11-23T13:01:37.928Z,19.03
2022-11-23T13:05:00.744Z,18.43
2022-11-23T13:08:21.780Z,15.77
2022-11-23T13:11:38.305Z,18.23
2022-11-23T13:14:49.704Z,17.40
2022-11-23T13:18:02.159Z,17.07
2022-11-23T13:21:18.660Z,17.57
2022-11-23T13:24:30.744Z,18.17
2022-11-23T13:27:46.884Z,18.20
2022-11-23T13:31:20.420Z,17.53
2022-11-23T13:34:45.896Z,16.13
2022-11-23T13:38:24.674Z,16.03
2022-11-23T13:42:00.469Z,14.83
2022-11-23T13:45:28.599Z,15.47
2022-11-23T13:48:55.395Z,13.97
2022-11-23T13:52:26.111Z,15.67
2022-11-23T13:55:35.352Z,16.10
2022-11-23T13:58:40.742Z,15.60
2022-11-23T14:02:00.487Z,16.00
2022-11-23T14:05:51.983Z,15.47
2022-11-23T14:09:05.661Z,14.70
2022-11-23T14:12:18.165Z,14.60
2022-11-23T14:15:23.078Z,14.97
2022-11-23T14:18:52.632Z,15.13
2022-11-23T14:22:04.094Z,14.23
2022-11-23T14:25:38.031Z,14.67
2022-11-23T14:28:49.202Z,13.97
2022-11-23T14:32:08.928Z,16.03
2022-11-23T14:35:25.084Z,15.00
2022-11-23T14:38:57.694Z,15.30
2022-11-23T14:42:06.291Z,15.23
2022-11-23T14:45:15.208Z,16.20
2022-11-23T14:48:22.019Z,15.90
2022-11-23T14:51:27.130Z,15.77
2022-11-23T14:54:31.293Z,16.03
2022-11-23T14:57:41.786Z,15.97
2022-11-23T15:00:45.758Z,17.70
2022-11-23T15:03:57.877Z,16.20
2022-11-23T15:07:04.063Z,16.50
2022-11-23T15:10:19.118Z,16.57
2022-11-23T15:13:26.824Z,17.73
2022-11-23T15:16:30.497Z,18.03
2022-11-23T15:19:33.744Z,17.47
2022-11-23T15:22:37.902Z,17.37
2022-11-23T15:25:52.093Z,17.53
2022-11-23T15:28:56.512Z,17.33
2022-11-23T15:32:28.413Z,16.70
2022-11-23T15:35:24.174Z,15.30
2022-11-23T15:38:27.641Z,16.53
2022-11-23T15:41:31.792Z,15.87
2022-11-23T15:44:39.820Z,16.47
2022-11-23T15:47:43.193Z,16.47
2022-11-23T15:50:50.544Z,16.70
2022-11-23T15:53:55.060Z,17.13
2022-11-23T15:56:59.031Z,18.43
2022-11-23T16:00:06.541Z,18.57
2022-11-23T16:03:34.732Z,17.93
2022-11-23T16:06:40.594Z,18.07
2022-11-23T16:09:54.477Z,17.73
2022-11-23T16:12:59.323Z,17.57
2022-11-23T16:16:06.312Z,17.67
2022-11-23T16:19:26.204Z,16.77
2022-11-23T16:22:32.829Z,16.77
2022-11-23T16:25:37.024Z,17.97
2022-11-23T16:28:41.532Z,17.03
2022-11-23T16:31:56.146Z,19.43
2022-11-23T16:35:07.844Z,19.23
2022-11-23T16:38:12.526Z,19.77
2022-11-23T16:41:15.450Z,18.73
2022-11-23T16:44:18.618Z,20.03
2022-11-23T16:47:25.277Z,18.93
2022-11-23T16:50:29.794Z,18.57
2022-11-23T16:53:53.497Z,20.53
2022-11-23T16:56:56.625Z,21.87
2022-11-23T17:00:12.519Z,21.87
2022-11-23T17:03:17.782Z,20.80
2022-11-23T17:06:23.267Z,20.93
2022-11-23T17:09:26.251Z,23.93
2022-11-23T17:12:29.213Z,22.53
2022-11-23T17:15:32.147Z,23.17
2022-11-23T17:18:36.415Z,23.60
2022-11-23T17:21:39.362Z,23.10
2022-11-23T17:24:42.539Z,25.53
2022-11-23T17:27:47.070Z,25.00
2022-11-23T17:30:50.132Z,25.67
2022-11-23T17:33:54.412Z,26.27
2022-11-23T17:36:57.380Z,25.97
2022-11-23T17:40:00.327Z,24.80
2022-11-23T17:43:03.344Z,26.53
2022-11-23T17:46:06.968Z,26.00
2022-11-23T17:49:14.021Z,24.63
2022-11-23T17:52:17.024Z,26.23
2022-11-23T17:55:20.046Z,27.03
2022-11-23T17:58:22.943Z,27.07
2022-11-23T18:01:26.038Z,28.57
2022-11-23T18:04:30.391Z,26.97
2022-11-23T18:07:33.420Z,25.80
2022-11-23T18:10:36.408Z,26.07
2022-11-23T18:13:39.953Z,26.87
2022-11-23T18:16:42.808Z,26.83
2022-11-23T18:19:47.074Z,29.30
2022-11-23T18:22:50.131Z,28.40
2022-11-23T18:25:59.724Z,27.80
2022-11-23T18:29:02.915Z,26.70
2022-11-23T18:32:06.670Z,28.33
2022-11-23T18:35:11.351Z,28.63
2022-11-23T18:38:15.042Z,30.47
2022-11-23T18:41:18.700Z,29.60
2022-11-23T18:44:21.733Z,32.00
2022-11-23T18:47:24.987Z,29.23
2022-11-23T18:50:29.225Z,31.10
2022-11-23T18:53:33.108Z,31.57
2022-11-23T18:56:36.096Z,28.23
2022-11-23T19:03:03.649Z,29.93
2022-11-23T19:06:08.591Z,31.50
2022-11-23T19:09:14.150Z,32.53
2022-11-23T19:12:17.179Z,31.27
2022-11-23T19:15:20.621Z,30.93
2022-11-23T19:18:23.566Z,29.70
2022-11-23T19:21:30.153Z,30.40
2022-11-23T19:24:33.089Z,30.40
2022-11-23T19:27:37.328Z,32.07
2022-11-23T19:30:40.210Z,32.63
2022-11-23T19:33:43.532Z,33.87
2022-11-23T19:36:48.023Z,34.17
2022-11-23T19:39:50.942Z,31.13
2022-11-23T19:42:53.909Z,33.47
2022-11-23T19:45:57.388Z,34.03
2022-11-23T19:49:00.482Z,32.10
2022-11-23T19:52:05.551Z,30.73
2022-11-23T19:55:09.374Z,33.67
2022-11-23T19:58:12.305Z,32.83
2022-11-23T20:01:16.777Z,36.93
2022-11-23T20:04:20.091Z,35.77
2022-11-23T20:07:24.585Z,35.10
2022-11-23T20:10:27.515Z,34.23
2022-11-23T20:13:30.814Z,32.07
2022-11-23T20:16:34.245Z,34.57
2022-11-23T20:19:37.241Z,33.10
2022-11-23T20:22:42.795Z,33.27
2022-11-23T20:25:45.755Z,32.10
2022-11-23T20:28:52.727Z,35.47
2022-11-23T20:31:55.634Z,34.93
2022-11-23T20:34:58.636Z,33.60
2022-11-23T20:38:03.072Z,34.60
2022-11-23T20:41:14.103Z,35.40
2022-11-23T20:44:17.044Z,34.13
2022-11-23T20:47:20.013Z,34.57
2022-11-23T20:50:25.168Z,34.17
2022-11-23T20:53:29.609Z,34.63
2022-11-23T20:56:33.037Z,33.10
2022-11-23T20:59:35.973Z,33.80
2022-11-23T21:02:38.987Z,36.10
2022-11-23T21:05:41.892Z,33.77
2022-11-23T21:08:47.471Z,33.63
2022-11-23T21:12:08.179Z,35.73
2022-11-23T21:15:11.176Z,36.10
2022-11-23T21:18:14.300Z,41.23
2022-11-23T21:21:17.197Z,39.03
2022-11-23T21:24:21.702Z,37.43
2022-11-23T21:27:28.073Z,42.53
2022-11-23T21:30:31.619Z,37.27
2022-11-23T21:33:34.752Z,40.00
2022-11-23T21:36:39.664Z,39.30
2022-11-23T21:39:49.433Z,40.50
2022-11-23T21:42:55.702Z,38.80
2022-11-23T21:46:02.335Z,38.13
2022-11-23T21:49:06.547Z,42.13
2022-11-23T21:52:09.774Z,42.27
2022-11-23T21:55:14.317Z,42.13
2022-11-23T21:58:17.200Z,41.57
2022-11-23T22:01:22.024Z,41.17
2022-11-23T22:04:25.244Z,41.37
2022-11-23T22:07:28.427Z,43.17
2022-11-23T22:10:32.991Z,40.63
2022-11-23T22:13:37.092Z,43.80
2022-11-23T22:16:41.797Z,44.73
2022-11-23T22:19:44.969Z,41.03
2022-11-23T22:22:48.002Z,42.03
2022-11-23T22:25:52.485Z,40.87
2022-11-23T22:28:56.514Z,43.60
2022-11-23T22:31:59.652Z,44.30
2022-11-23T22:35:02.772Z,46.87
2022-11-23T22:38:05.855Z,41.47
2022-11-23T22:41:12.216Z,40.40
2022-11-23T22:44:15.244Z,42.40
2022-11-23T22:47:18.378Z,40.43
2022-11-23T22:50:21.469Z,45.63
2022-11-23T22:53:25.336Z,46.83
2022-11-23T22:56:31.243Z,44.03
2022-11-23T22:59:34.413Z,45.43
2022-11-23T23:02:37.584Z,49.80
2022-11-23T23:05:40.745Z,47.13
2022-11-23T23:08:44.028Z,44.67
2022-11-23T23:11:48.535Z,44.90
2022-11-23T23:14:51.608Z,46.40
2022-11-23T23:17:54.811Z,52.60
2022-11-23T23:21:05.064Z,47.13
2022-11-23T23:24:08.529Z,47.27
2022-11-23T23:27:13.003Z,45.43
2022-11-23T23:30:17.280Z,45.83
2022-11-23T23:33:20.368Z,49.90
2022-11-23T23:36:24.995Z,50.00
2022-11-23T23:39:28.141Z,46.53
2022-11-23T23:42:32.846Z,48.90
2022-11-23T23:45:35.980Z,47.47
2022-11-23T23:48:40.036Z,48.10
2022-11-23T23:51:45.545Z,49.87
2022-11-23T23:54:52.098Z,50.20
2022-11-23T23:57:56.553Z,46.57
